createdAt,value
2023-05-13T00:00:07.430Z,438.7692
2023-05-13T00:01:08.527Z,436.3846
2023-05-13T00:02:09.621Z,435.2308
2023-05-13T00:03:10.798Z,440.0769
2023-05-13T00:04:11.845Z,439.8462
2023-05-13T00:05:12.930Z,437.2308
2023-05-13T00:06:14.054Z,434.2308
2023-05-13T00:07:15.114Z,432.3077
2023-05-13T00:08:16.228Z,431.3846
2023-05-13T00:09:17.329Z,432.6923
2023-05-13T00:10:18.444Z,433.0000
2023-05-13T00:11:19.521Z,432.9231
2023-05-13T00:12:20.618Z,434.8462
2023-05-13T00:13:21.700Z,435.2308
2023-05-13T00:14:22.804Z,435.1538
2023-05-13T00:15:23.919Z,433.0769
2023-05-13T00:16:25.000Z,433.0769
2023-05-13T00:17:26.128Z,432.4615
2023-05-13T00:18:27.251Z,431.4615
2023-05-13T00:19:28.308Z,432.7692
2023-05-13T00:20:29.408Z,433.6154
2023-05-13T00:21:30.532Z,432.6923
2023-05-13T00:22:31.638Z,431.2308
2023-05-13T00:23:32.711Z,432.4615
2023-05-13T00:24:33.833Z,433.3846
2023-05-13T00:25:34.928Z,432.9231
2023-05-13T00:26:36.002Z,436.6154
2023-05-13T00:27:37.121Z,437.3077
2023-05-13T00:28:38.214Z,433.9231
2023-05-13T00:29:39.308Z,432.2308
2023-05-13T00:30:40.420Z,431.4615
2023-05-13T00:31:41.629Z,431.0000
2023-05-13T00:32:42.640Z,428.8462
2023-05-13T00:33:43.718Z,427.9231
2023-05-13T00:34:44.843Z,426.2308
2023-05-13T00:35:45.919Z,428.2308
2023-05-13T00:36:47.016Z,430.9231
2023-05-13T00:37:48.129Z,430.6154
2023-05-13T00:38:49.330Z,430.3077
2023-05-13T00:39:50.338Z,431.3846
2023-05-13T00:40:51.452Z,432.6154
2023-05-13T00:41:52.515Z,432.0769
2023-05-13T00:42:53.623Z,432.3077
2023-05-13T00:43:54.734Z,432.3846
2023-05-13T00:44:55.829Z,431.6923
2023-05-13T00:45:56.945Z,432.3077
2023-05-13T00:46:58.019Z,432.3846
2023-05-13T00:47:59.212Z,435.0000
2023-05-13T00:49:00.200Z,435.7692
2023-05-13T00:50:01.332Z,434.1538
2023-05-13T00:51:02.435Z,433.0769
2023-05-13T00:52:03.512Z,432.7692
2023-05-13T00:53:04.606Z,432.8462
2023-05-13T00:54:05.738Z,432.9231
2023-05-13T00:55:06.820Z,429.3077
2023-05-13T00:56:07.928Z,427.3077
2023-05-13T00:57:09.006Z,430.0769
2023-05-13T00:58:10.113Z,430.7692
2023-05-13T00:59:11.232Z,432.3077
2023-05-13T01:00:12.328Z,433.7692
2023-05-13T01:01:13.432Z,433.0000
2023-05-13T01:02:14.565Z,434.4615
2023-05-13T01:03:15.653Z,434.0000
2023-05-13T01:04:16.715Z,435.5385
2023-05-13T01:05:17.977Z,436.6923
2023-05-13T01:06:18.922Z,438.3846
2023-05-13T01:07:20.010Z,438.4615
2023-05-13T01:08:21.127Z,437.8462
2023-05-13T01:09:22.244Z,439.0769
2023-05-13T01:10:23.573Z,437.5385
2023-05-13T01:11:24.420Z,437.4615
2023-05-13T01:12:25.520Z,438.2308
2023-05-13T01:13:26.635Z,440.2308
2023-05-13T01:14:27.724Z,438.7692
2023-05-13T01:15:28.824Z,434.0769
2023-05-13T01:16:29.990Z,435.0769
2023-05-13T01:17:31.047Z,436.1538
2023-05-13T01:18:32.149Z,437.0000
2023-05-13T01:19:33.212Z,438.0000
2023-05-13T01:20:34.376Z,440.7692
2023-05-13T01:21:35.416Z,443.0000
2023-05-13T01:22:36.527Z,439.9231
2023-05-13T01:23:37.635Z,436.3077
2023-05-13T01:24:38.759Z,433.9231
2023-05-13T01:25:39.884Z,435.3077
2023-05-13T01:26:40.926Z,438.3077
2023-05-13T01:27:42.013Z,438.8462
2023-05-13T01:28:43.106Z,440.3846
2023-05-13T01:29:44.236Z,438.9231
2023-05-13T01:30:45.327Z,439.4615
2023-05-13T01:31:46.519Z,437.9231
2023-05-13T01:32:47.560Z,438.8462
2023-05-13T01:33:48.604Z,440.7692
2023-05-13T01:34:49.707Z,441.1538
2023-05-13T01:35:50.839Z,439.8462
2023-05-13T01:36:51.892Z,443.1538
2023-05-13T01:37:53.011Z,446.0769
2023-05-13T01:38:54.116Z,444.1538
2023-05-13T01:39:55.204Z,439.3077
2023-05-13T01:40:56.317Z,440.5385
2023-05-13T01:41:57.390Z,440.5385
2023-05-13T01:42:58.485Z,440.7692
2023-05-13T01:43:59.597Z,439.0000
2023-05-13T01:45:00.711Z,435.3846
2023-05-13T01:46:01.860Z,437.3077
2023-05-13T01:47:02.900Z,436.5385
2023-05-13T01:48:04.021Z,438.1538
2023-05-13T01:49:05.093Z,439.9231
2023-05-13T01:50:06.191Z,440.6154
2023-05-13T01:51:07.303Z,439.3846
2023-05-13T01:52:08.392Z,441.4615
2023-05-13T01:53:09.504Z,440.5385
2023-05-13T01:54:10.582Z,441.2308
2023-05-13T01:55:11.695Z,439.1538
2023-05-13T01:56:12.792Z,441.9231
2023-05-13T01:57:13.889Z,439.4615
2023-05-13T01:58:14.961Z,442.6923
2023-05-13T01:59:16.064Z,443.0000
2023-05-13T02:00:17.184Z,445.5385
2023-05-13T02:01:19.378Z,445.4615
2023-05-13T02:02:19.390Z,440.6923
2023-05-13T02:03:20.550Z,441.3077
2023-05-13T02:04:21.568Z,441.2308
2023-05-13T02:05:30.186Z,441.0000
2023-05-13T02:06:23.788Z,437.3333
2023-05-13T02:07:24.853Z,438.0000
2023-05-13T02:08:25.974Z,439.8462
2023-05-13T02:09:27.047Z,438.1538
2023-05-13T02:10:28.153Z,436.9231
2023-05-13T02:11:29.260Z,434.6154
2023-05-13T02:12:30.328Z,434.7692
2023-05-13T02:13:31.441Z,434.9231
2023-05-13T02:14:32.637Z,433.8462
2023-05-13T02:15:33.631Z,435.1538
2023-05-13T02:16:34.763Z,437.0000
2023-05-13T02:17:35.850Z,437.9231
2023-05-13T02:18:36.983Z,439.3077
2023-05-13T02:19:38.026Z,438.3077
2023-05-13T02:20:39.103Z,440.3077
2023-05-13T02:21:40.217Z,444.0000
2023-05-13T02:22:41.333Z,445.8462
2023-05-13T02:23:42.401Z,445.6154
2023-05-13T02:24:43.546Z,445.0000
2023-05-13T02:25:44.606Z,444.6923
2023-05-13T02:26:45.744Z,447.5385
2023-05-13T02:27:46.798Z,446.6923
2023-05-13T02:28:47.922Z,446.6154
2023-05-13T02:29:49.011Z,445.2308
2023-05-13T02:30:50.094Z,444.7692
2023-05-13T02:31:51.263Z,444.2308
2023-05-13T02:32:52.414Z,446.8462
2023-05-13T02:33:53.398Z,443.0000
2023-05-13T02:34:54.492Z,441.0769
2023-05-13T02:35:55.587Z,442.0000
2023-05-13T02:36:56.709Z,440.3846
2023-05-13T02:38:23.324Z,436.6154
2023-05-13T02:38:58.936Z,436.6250
2023-05-13T02:40:00.063Z,436.3077
2023-05-13T02:41:01.133Z,438.2308
2023-05-13T02:42:02.231Z,433.6154
2023-05-13T02:43:03.321Z,432.6923
2023-05-13T02:44:04.415Z,433.3846
2023-05-13T02:45:05.505Z,434.7692
2023-05-13T02:46:06.719Z,436.0769
2023-05-13T02:47:07.720Z,436.5385
2023-05-13T02:48:08.868Z,434.0769
2023-05-13T02:49:09.875Z,433.4615
2023-05-13T02:50:10.994Z,436.4615
2023-05-13T02:51:12.092Z,437.9231
2023-05-13T02:52:13.195Z,439.6154
2023-05-13T02:53:14.286Z,438.7692
2023-05-13T02:54:15.399Z,438.1538
2023-05-13T02:55:16.517Z,439.7692
2023-05-13T02:56:17.563Z,440.1538
2023-05-13T02:57:18.661Z,438.5385
2023-05-13T02:58:19.791Z,440.7692
2023-05-13T02:59:20.886Z,437.2308
2023-05-13T03:00:22.173Z,436.9231
2023-05-13T03:01:23.120Z,435.0000
2023-05-13T03:02:24.228Z,432.6923
2023-05-13T03:03:25.434Z,430.6923
2023-05-13T03:04:26.377Z,429.8462
2023-05-13T03:05:29.217Z,428.3077
2023-05-13T03:06:28.577Z,429.0000
2023-05-13T03:07:29.665Z,427.4615
2023-05-13T03:08:30.733Z,426.3846
2023-05-13T03:09:31.872Z,429.0000
2023-05-13T03:10:32.940Z,430.6923
2023-05-13T03:11:34.015Z,432.4615
2023-05-13T03:12:35.159Z,434.6923
2023-05-13T03:13:36.237Z,433.8462
2023-05-13T03:14:37.307Z,432.1538
2023-05-13T03:15:38.467Z,432.9231
2023-05-13T03:16:39.567Z,433.5385
2023-05-13T03:17:40.646Z,433.7692
2023-05-13T03:18:41.745Z,432.6154
2023-05-13T03:19:42.817Z,432.7692
2023-05-13T03:20:43.918Z,432.3846
2023-05-13T03:21:44.995Z,431.0000
2023-05-13T03:22:46.095Z,431.0000
2023-05-13T03:23:47.203Z,428.8462
2023-05-13T03:24:48.293Z,431.5385
2023-05-13T03:25:49.413Z,430.4615
2023-05-13T03:26:50.493Z,432.3846
2023-05-13T03:27:51.635Z,432.0000
2023-05-13T03:28:52.725Z,434.7692
2023-05-13T03:29:53.806Z,434.8462
2023-05-13T03:30:54.922Z,432.7692
2023-05-13T03:31:56.017Z,431.6154
2023-05-13T03:32:57.157Z,429.6923
2023-05-13T03:33:58.187Z,430.2308
2023-05-13T03:34:59.300Z,433.1538
2023-05-13T03:36:00.420Z,434.3077
2023-05-13T03:37:01.480Z,433.5385
2023-05-13T03:38:02.626Z,432.6154
2023-05-13T03:39:03.708Z,432.5385
2023-05-13T03:40:04.772Z,433.8462
2023-05-13T03:41:05.886Z,433.6923
2023-05-13T03:42:06.998Z,434.5385
2023-05-13T03:43:08.091Z,437.7692
2023-05-13T03:44:09.178Z,436.0000
2023-05-13T03:45:10.273Z,437.6923
2023-05-13T03:46:11.374Z,439.5385
2023-05-13T03:47:12.461Z,442.4615
2023-05-13T03:48:13.594Z,444.4615
2023-05-13T03:49:14.631Z,442.6923
2023-05-13T03:50:15.769Z,440.6154
2023-05-13T03:51:16.865Z,443.0000
2023-05-13T03:52:17.962Z,441.4615
2023-05-13T03:53:19.056Z,442.8462
2023-05-13T03:54:20.167Z,442.6154
2023-05-13T03:55:21.254Z,441.7692
2023-05-13T03:56:22.338Z,442.1538
2023-05-13T03:57:23.463Z,440.6154
2023-05-13T03:58:24.569Z,440.3077
2023-05-13T03:59:25.630Z,442.2308
2023-05-13T04:00:26.730Z,443.9231
2023-05-13T04:01:27.816Z,446.6154
2023-05-13T04:02:29.011Z,447.3846
2023-05-13T04:03:30.068Z,445.0769
2023-05-13T04:04:31.162Z,441.3846
2023-05-13T04:05:32.237Z,440.2308
2023-05-13T04:06:33.286Z,440.6923
2023-05-13T04:07:34.371Z,441.1538
2023-05-13T04:08:35.515Z,437.3846
2023-05-13T04:09:36.569Z,438.1538
2023-05-13T04:10:37.668Z,440.6154
2023-05-13T04:11:38.756Z,441.1538
2023-05-13T04:12:39.842Z,439.5385
2023-05-13T04:13:40.956Z,439.4615
2023-05-13T04:14:42.015Z,438.2308
2023-05-13T04:15:43.143Z,439.3846
2023-05-13T04:16:44.222Z,438.3846
2023-05-13T04:17:45.355Z,438.3846
2023-05-13T04:18:46.525Z,435.7692
2023-05-13T04:19:47.520Z,434.6154
2023-05-13T04:20:48.615Z,433.0769
2023-05-13T04:21:49.677Z,432.2308
2023-05-13T04:22:50.778Z,433.0769
2023-05-13T04:23:51.894Z,431.6923
2023-05-13T04:24:53.006Z,433.9231
2023-05-13T04:25:54.071Z,435.0769
2023-05-13T04:26:55.174Z,435.3846
2023-05-13T04:27:56.252Z,437.2308
2023-05-13T04:28:57.397Z,433.8462
2023-05-13T04:29:58.448Z,431.3846
2023-05-13T04:30:59.537Z,432.3846
2023-05-13T04:32:00.690Z,431.5385
2023-05-13T04:33:01.815Z,432.3077
2023-05-13T04:34:02.848Z,432.1538
2023-05-13T04:35:03.943Z,434.6923
2023-05-13T04:36:04.991Z,435.0769
2023-05-13T04:37:06.073Z,436.1538
2023-05-13T04:38:07.183Z,437.0000
2023-05-13T04:39:08.263Z,439.6154
2023-05-13T04:40:09.373Z,440.6923
2023-05-13T04:41:10.473Z,441.2308
2023-05-13T04:42:11.556Z,441.2308
2023-05-13T04:43:12.643Z,442.0000
2023-05-13T04:44:13.743Z,441.6154
2023-05-13T04:45:14.847Z,442.1538
2023-05-13T04:46:15.972Z,444.3077
2023-05-13T04:47:17.014Z,443.0000
2023-05-13T04:48:18.110Z,440.0769
2023-05-13T04:49:19.210Z,442.6154
2023-05-13T04:50:20.487Z,443.3077
2023-05-13T04:51:21.399Z,443.9231
2023-05-13T04:52:22.532Z,441.6923
2023-05-13T04:53:23.582Z,441.6154
2023-05-13T04:54:24.712Z,441.3846
2023-05-13T04:55:27.577Z,444.5385
2023-05-13T04:56:26.853Z,443.7692
2023-05-13T04:57:27.991Z,443.3077
2023-05-13T04:58:29.068Z,442.5385
2023-05-13T04:59:30.152Z,443.0769
2023-05-13T05:00:31.224Z,443.6154
2023-05-13T05:01:32.352Z,446.4615
2023-05-13T05:02:33.462Z,446.1538
2023-05-13T05:03:34.613Z,447.0000
2023-05-13T05:04:35.618Z,448.0000
2023-05-13T05:05:36.702Z,445.3846
2023-05-13T05:06:37.800Z,444.3846
2023-05-13T05:07:38.914Z,444.1538
2023-05-13T05:08:40.023Z,442.8462
2023-05-13T05:09:41.278Z,445.0769
2023-05-13T05:10:42.195Z,447.0769
2023-05-13T05:11:43.284Z,446.2308
2023-05-13T05:12:44.416Z,448.0000
2023-05-13T05:13:45.488Z,448.3077
2023-05-13T05:14:46.593Z,448.3077
2023-05-13T05:15:47.690Z,446.3846
2023-05-13T05:16:48.846Z,446.0769
2023-05-13T05:17:49.917Z,443.6154
2023-05-13T05:18:51.052Z,442.5385
2023-05-13T05:19:52.100Z,444.9231
2023-05-13T05:20:53.188Z,443.2308
2023-05-13T05:21:54.241Z,443.9231
2023-05-13T05:22:55.346Z,441.8462
2023-05-13T05:23:56.470Z,439.8462
2023-05-13T05:24:57.572Z,438.4615
2023-05-13T05:26:08.351Z,436.8462
2023-05-13T05:27:00.716Z,438.6154
2023-05-13T05:28:00.815Z,438.7692
2023-05-13T05:29:01.933Z,437.3846
2023-05-13T05:30:03.104Z,442.1538
2023-05-13T05:31:04.170Z,442.4615
2023-05-13T05:32:05.270Z,442.6923
2023-05-13T05:33:06.379Z,439.5385
2023-05-13T05:34:07.403Z,437.9231
2023-05-13T05:35:08.501Z,441.1538
2023-05-13T05:36:09.625Z,441.3077
2023-05-13T05:37:10.709Z,443.0769
2023-05-13T05:38:11.805Z,445.6154
2023-05-13T05:39:12.925Z,446.5385
2023-05-13T05:40:13.987Z,447.2308
2023-05-13T05:41:15.084Z,447.0769
2023-05-13T05:42:16.197Z,445.8462
2023-05-13T05:43:17.303Z,446.7692
2023-05-13T05:44:18.391Z,446.8462
2023-05-13T05:45:19.507Z,445.5385
2023-05-13T05:46:20.672Z,445.4615
2023-05-13T05:47:21.734Z,443.3846
2023-05-13T05:48:22.794Z,443.0000
2023-05-13T05:49:23.889Z,442.8462
2023-05-13T05:50:25.019Z,443.8462
2023-05-13T05:51:26.095Z,445.2308
2023-05-13T05:52:27.173Z,442.7692
2023-05-13T05:53:28.260Z,441.3846
2023-05-13T05:54:29.369Z,439.6923
2023-05-13T05:55:30.491Z,444.0769
2023-05-13T05:56:31.576Z,446.4615
2023-05-13T05:57:32.669Z,448.0000
2023-05-13T05:58:33.754Z,447.6154
2023-05-13T05:59:34.864Z,448.0769
2023-05-13T06:00:35.964Z,444.8462
2023-05-13T06:01:37.064Z,444.0000
2023-05-13T06:02:38.228Z,445.2308
2023-05-13T06:03:39.312Z,444.0769
2023-05-13T06:04:40.407Z,443.6154
2023-05-13T06:05:41.436Z,443.9231
2023-05-13T06:06:42.575Z,447.3846
2023-05-13T06:07:43.647Z,444.6154
2023-05-13T06:08:44.748Z,440.9231
2023-05-13T06:09:45.837Z,440.1538
2023-05-13T06:10:46.934Z,441.3077
2023-05-13T06:11:48.049Z,440.9231
2023-05-13T06:12:49.145Z,442.0000
2023-05-13T06:13:50.246Z,443.4615
2023-05-13T06:14:51.321Z,442.8462
2023-05-13T06:15:52.429Z,443.5385
2023-05-13T06:16:54.987Z,442.3077
2023-05-13T06:17:54.662Z,440.4615
2023-05-13T06:18:55.746Z,440.8462
2023-05-13T06:19:56.795Z,439.8462
2023-05-13T06:20:57.928Z,437.0769
2023-05-13T06:21:59.003Z,436.7692
2023-05-13T06:23:00.105Z,436.6923
2023-05-13T06:24:01.200Z,433.9231
2023-05-13T06:25:02.314Z,432.6923
2023-05-13T06:26:03.387Z,434.8462
2023-05-13T06:27:04.492Z,435.9231
2023-05-13T06:28:05.584Z,438.3077
2023-05-13T06:29:06.663Z,443.0000
2023-05-13T06:30:07.768Z,442.0000
2023-05-13T06:31:08.901Z,440.3846
2023-05-13T06:32:09.965Z,439.3846
2023-05-13T06:33:11.074Z,439.5385
2023-05-13T06:34:12.169Z,441.3846
2023-05-13T06:35:13.280Z,441.0000
2023-05-13T06:36:14.387Z,440.3846
2023-05-13T06:37:15.453Z,441.2308
2023-05-13T06:38:16.558Z,441.3846
2023-05-13T06:39:17.765Z,444.0769
2023-05-13T06:40:18.851Z,446.0769
2023-05-13T06:41:19.937Z,445.3077
2023-05-13T06:42:21.032Z,441.8462
2023-05-13T06:43:22.130Z,440.0769
2023-05-13T06:44:23.229Z,438.7692
2023-05-13T06:45:24.353Z,439.0000
2023-05-13T06:46:25.459Z,437.3846
2023-05-13T06:47:26.572Z,437.8462
2023-05-13T06:48:27.662Z,438.7692
2023-05-13T06:49:28.735Z,442.6154
2023-05-13T06:50:29.826Z,444.0000
2023-05-13T06:51:30.946Z,445.3846
2023-05-13T06:52:32.043Z,443.3846
2023-05-13T06:53:33.118Z,442.4615
2023-05-13T06:54:34.243Z,443.5385
2023-05-13T06:55:35.331Z,442.9231
2023-05-13T06:56:36.421Z,441.5385
2023-05-13T06:57:42.958Z,441.4615
2023-05-13T06:58:39.621Z,439.6923
2023-05-13T06:59:39.726Z,440.2308
2023-05-13T07:00:40.922Z,439.6154
2023-05-13T07:01:41.914Z,438.5385
2023-05-13T07:02:43.067Z,438.3846
2023-05-13T07:03:44.240Z,436.6154
2023-05-13T07:04:45.208Z,439.0769
2023-05-13T07:05:46.333Z,438.2308
2023-05-13T07:06:47.408Z,440.5385
2023-05-13T07:07:48.489Z,440.7692
2023-05-13T07:08:49.592Z,437.8462
2023-05-13T07:09:50.697Z,437.5385
2023-05-13T07:10:51.781Z,436.6154
2023-05-13T07:11:52.878Z,436.4615
2023-05-13T07:12:53.959Z,437.3846
2023-05-13T07:13:55.086Z,437.2308
2023-05-13T07:14:56.203Z,437.0769
2023-05-13T07:15:57.257Z,438.0769
2023-05-13T07:16:58.379Z,438.6923
2023-05-13T07:17:59.496Z,438.1538
2023-05-13T07:19:00.633Z,436.6923
2023-05-13T07:20:01.665Z,436.0000
2023-05-13T07:21:02.751Z,437.3077
2023-05-13T07:22:03.846Z,435.8462
2023-05-13T07:23:04.932Z,433.7692
2023-05-13T07:24:06.023Z,432.8462
2023-05-13T07:25:07.145Z,432.6923
2023-05-13T07:26:08.242Z,434.6923
2023-05-13T07:27:09.333Z,436.1538
2023-05-13T07:28:10.421Z,434.6923
2023-05-13T07:29:11.558Z,432.3077
2023-05-13T07:30:12.657Z,432.0769
2023-05-13T07:31:13.755Z,432.0000
2023-05-13T07:32:14.843Z,434.0000
2023-05-13T07:33:15.927Z,435.4615
2023-05-13T07:34:16.989Z,437.8462
2023-05-13T07:35:18.094Z,442.3846
2023-05-13T07:36:19.220Z,442.5385
2023-05-13T07:37:20.304Z,440.9231
2023-05-13T07:38:21.401Z,441.8462
2023-05-13T07:39:22.498Z,442.2308
2023-05-13T07:40:23.720Z,441.0769
2023-05-13T07:41:24.689Z,439.0000
2023-05-13T07:42:25.818Z,437.2308
2023-05-13T07:43:26.883Z,437.6154
2023-05-13T07:44:27.986Z,439.0769
2023-05-13T07:45:29.090Z,439.7692
2023-05-13T07:46:30.210Z,438.0000
2023-05-13T07:47:31.289Z,437.6923
2023-05-13T07:48:32.396Z,436.8462
2023-05-13T07:49:33.459Z,437.9231
2023-05-13T07:50:34.559Z,438.5385
2023-05-13T07:51:35.672Z,438.3846
2023-05-13T07:52:36.765Z,437.7692
2023-05-13T07:53:37.839Z,438.6923
2023-05-13T07:54:38.967Z,438.7692
2023-05-13T07:55:40.058Z,440.6154
2023-05-13T07:56:41.147Z,437.1538
2023-05-13T07:57:42.300Z,435.7692
2023-05-13T07:58:43.365Z,436.6923
2023-05-13T07:59:45.002Z,437.3077
2023-05-13T08:00:45.571Z,437.5385
2023-05-13T08:01:46.696Z,437.2308
2023-05-13T08:02:47.915Z,437.0000
2023-05-13T08:03:49.071Z,434.6923
2023-05-13T08:04:50.025Z,434.6154
2023-05-13T08:05:51.109Z,436.7692
2023-05-13T08:06:52.205Z,436.9231
2023-05-13T08:07:53.329Z,434.2308
2023-05-13T08:08:54.444Z,431.5385
2023-05-13T08:09:55.517Z,427.7692
2023-05-13T08:10:56.650Z,428.7692
2023-05-13T08:11:57.748Z,430.4615
2023-05-13T08:12:58.874Z,430.7692
2023-05-13T08:13:59.943Z,430.0769
2023-05-13T08:15:01.087Z,429.3077
2023-05-13T08:16:02.234Z,427.9231
2023-05-13T08:17:03.249Z,429.1538
2023-05-13T08:18:04.389Z,430.9231
2023-05-13T08:19:05.537Z,429.8462
2023-05-13T08:20:06.598Z,427.8462
2023-05-13T08:21:07.712Z,427.6923
2023-05-13T08:22:08.805Z,427.0769
2023-05-13T08:23:09.925Z,428.9231
2023-05-13T08:24:10.978Z,427.8462
2023-05-13T08:25:12.094Z,427.7692
2023-05-13T08:26:13.234Z,429.7692
2023-05-13T08:27:14.342Z,431.4615
2023-05-13T08:28:15.445Z,429.9231
2023-05-13T08:29:16.546Z,428.3846
2023-05-13T08:30:17.625Z,428.6923
2023-05-13T08:31:18.770Z,430.7692
2023-05-13T08:32:19.909Z,430.3846
2023-05-13T08:33:20.962Z,430.1538
2023-05-13T08:34:22.056Z,430.5385
2023-05-13T08:35:23.409Z,431.3846
2023-05-13T08:36:24.277Z,430.5385
2023-05-13T08:37:25.386Z,429.1538
2023-05-13T08:38:26.586Z,427.8462
2023-05-13T08:39:27.586Z,425.8462
2023-05-13T08:40:28.696Z,426.6154
2023-05-13T08:41:29.841Z,424.2308
2023-05-13T08:42:30.901Z,424.8462
2023-05-13T08:43:32.025Z,425.0769
2023-05-13T08:44:33.138Z,424.8462
2023-05-13T08:45:34.238Z,424.0769
2023-05-13T08:46:35.374Z,428.3077
2023-05-13T08:47:37.197Z,423.0000
2023-05-13T08:48:37.563Z,422.5385
2023-05-13T08:49:38.641Z,422.5385
2023-05-13T08:50:39.778Z,421.9231
2023-05-13T08:51:40.879Z,424.0000
2023-05-13T08:52:41.970Z,421.3846
2023-05-13T08:53:43.066Z,420.8462
2023-05-13T08:54:44.185Z,421.2308
2023-05-13T08:55:45.262Z,422.6154
2023-05-13T08:56:46.388Z,421.7692
2023-05-13T08:57:47.485Z,422.5385
2023-05-13T08:58:48.582Z,423.3077
2023-05-13T08:59:49.687Z,424.3846
2023-05-13T09:00:50.811Z,423.8462
2023-05-13T09:01:52.016Z,423.9231
2023-05-13T09:02:53.065Z,422.5385
2023-05-13T09:03:54.153Z,423.4615
2023-05-13T09:04:55.295Z,422.7692
2023-05-13T09:05:56.339Z,423.2308
2023-05-13T09:06:57.433Z,424.8462
2023-05-13T09:07:58.553Z,424.0000
2023-05-13T09:08:59.658Z,424.4615
2023-05-13T09:10:00.773Z,425.9231
2023-05-13T09:11:01.888Z,424.3846
2023-05-13T09:12:02.970Z,423.3077
2023-05-13T09:13:04.083Z,424.7692
2023-05-13T09:14:05.222Z,423.6923
2023-05-13T09:15:06.312Z,423.2308
2023-05-13T09:16:07.441Z,421.5385
2023-05-13T09:17:08.517Z,418.9231
2023-05-13T09:18:09.733Z,419.5385
2023-05-13T09:19:10.769Z,419.5385
2023-05-13T09:20:11.845Z,418.8462
2023-05-13T09:21:12.945Z,419.5385
2023-05-13T09:22:14.039Z,418.8462
2023-05-13T09:23:15.159Z,420.6923
2023-05-13T09:24:16.255Z,419.3077
2023-05-13T09:25:17.369Z,420.4615
2023-05-13T09:26:18.454Z,419.3846
2023-05-13T09:27:19.581Z,417.8462
2023-05-13T09:28:20.664Z,419.0000
2023-05-13T09:29:21.784Z,418.4615
2023-05-13T09:30:22.896Z,418.9231
2023-05-13T09:31:24.098Z,418.6923
2023-05-13T09:32:25.102Z,417.1538
2023-05-13T09:33:26.210Z,417.1538
2023-05-13T09:34:27.305Z,417.2308
2023-05-13T09:35:28.425Z,417.2308
2023-05-13T09:36:29.553Z,417.9231
2023-05-13T09:37:30.626Z,418.8462
2023-05-13T09:38:31.780Z,419.3077
2023-05-13T09:39:33.773Z,420.5385
2023-05-13T09:40:33.950Z,418.7692
2023-05-13T09:41:35.098Z,420.3077
2023-05-13T09:42:36.184Z,422.5385
2023-05-13T09:43:37.261Z,424.5385
2023-05-13T09:44:38.476Z,424.8462
2023-05-13T09:45:39.480Z,423.3846
2023-05-13T09:46:40.632Z,421.6923
2023-05-13T09:47:41.721Z,419.6923
2023-05-13T09:48:42.822Z,417.7692
2023-05-13T09:49:43.898Z,419.2308
2023-05-13T09:50:45.006Z,420.6923
2023-05-13T09:51:46.108Z,417.6154
2023-05-13T09:52:47.235Z,415.3077
2023-05-13T09:53:48.342Z,416.3846
2023-05-13T09:54:49.484Z,415.3077
2023-05-13T09:55:50.539Z,412.9231
2023-05-13T09:56:51.658Z,414.8462
2023-05-13T09:57:52.755Z,416.2308
2023-05-13T09:58:53.910Z,416.3846
2023-05-13T09:59:55.013Z,414.4615
2023-05-13T10:00:56.098Z,410.3077
2023-05-13T10:01:57.189Z,409.7692
2023-05-13T10:02:58.319Z,411.8462
2023-05-13T10:03:59.479Z,415.3077
2023-05-13T10:05:00.548Z,416.8462
2023-05-13T10:06:03.608Z,418.0769
2023-05-13T10:07:02.730Z,416.5385
2023-05-13T10:08:03.828Z,416.4615
2023-05-13T10:09:04.945Z,416.2308
2023-05-13T10:10:06.063Z,413.6154
2023-05-13T10:11:07.147Z,413.6154
2023-05-13T10:12:08.254Z,415.7692
2023-05-13T10:13:09.363Z,419.1538
2023-05-13T10:14:10.451Z,419.6154
2023-05-13T10:15:11.590Z,416.7692
2023-05-13T10:16:12.714Z,419.0000
2023-05-13T10:17:13.765Z,418.7692
2023-05-13T10:18:14.946Z,416.8462
2023-05-13T10:19:16.041Z,419.3846
2023-05-13T10:20:17.112Z,419.8462
2023-05-13T10:21:18.190Z,419.4615
2023-05-13T10:22:19.309Z,420.3077
2023-05-13T10:23:20.407Z,421.3077
2023-05-13T10:24:21.539Z,422.4615
2023-05-13T10:25:22.631Z,420.1538
2023-05-13T10:26:23.716Z,421.0000
2023-05-13T10:27:24.829Z,421.6923
2023-05-13T10:28:25.947Z,418.7692
2023-05-13T10:29:27.157Z,417.3846
2023-05-13T10:30:28.161Z,419.7692
2023-05-13T10:31:29.312Z,417.7692
2023-05-13T10:32:30.429Z,419.5385
2023-05-13T10:33:31.459Z,418.0000
2023-05-13T10:34:32.581Z,417.6154
2023-05-13T10:35:36.777Z,419.3846
2023-05-13T10:36:34.775Z,419.5385
2023-05-13T10:37:35.882Z,418.3846
2023-05-13T10:38:36.983Z,419.6154
2023-05-13T10:39:38.102Z,422.1538
2023-05-13T10:40:39.276Z,420.1538
2023-05-13T10:41:40.357Z,416.7692
2023-05-13T10:42:41.467Z,412.2308
2023-05-13T10:43:42.582Z,412.9231
2023-05-13T10:44:43.670Z,414.7692
2023-05-13T10:45:44.800Z,416.1538
2023-05-13T10:46:45.956Z,415.3077
2023-05-13T10:47:47.021Z,420.2308
2023-05-13T10:48:48.070Z,419.8462
2023-05-13T10:49:49.155Z,420.6923
2023-05-13T10:50:50.252Z,422.3846
2023-05-13T10:51:51.351Z,421.3077
2023-05-13T10:52:52.627Z,421.9231
2023-05-13T10:53:53.516Z,425.8462
2023-05-13T10:54:54.628Z,426.6154
2023-05-13T10:55:55.748Z,425.0000
2023-05-13T10:56:56.814Z,423.2308
2023-05-13T10:57:57.916Z,422.3846
2023-05-13T10:58:58.998Z,423.6923
2023-05-13T11:00:00.133Z,425.0769
2023-05-13T11:01:01.175Z,424.0769
2023-05-13T11:02:02.336Z,422.6154
2023-05-13T11:03:03.435Z,423.1538
2023-05-13T11:04:04.652Z,422.3077
2023-05-13T11:05:05.563Z,419.5385
2023-05-13T11:06:06.660Z,421.0000
2023-05-13T11:07:07.743Z,419.5385
2023-05-13T11:08:08.824Z,420.3846
2023-05-13T11:09:09.936Z,420.3846
2023-05-13T11:10:11.024Z,421.6923
2023-05-13T11:11:12.144Z,422.2308
2023-05-13T11:12:13.214Z,421.9231
2023-05-13T11:13:14.301Z,421.6154
2023-05-13T11:14:15.399Z,420.7692
2023-05-13T11:15:16.495Z,420.2308
2023-05-13T11:16:17.646Z,418.3077
2023-05-13T11:17:18.677Z,416.6154
2023-05-13T11:18:19.755Z,418.6154
2023-05-13T11:19:20.866Z,417.3077
2023-05-13T11:20:22.207Z,416.3846
2023-05-13T11:21:23.056Z,418.8462
2023-05-13T11:22:24.437Z,420.3077
2023-05-13T11:23:25.233Z,420.8462
2023-05-13T11:24:26.316Z,422.3077
2023-05-13T11:25:27.440Z,422.6923
2023-05-13T11:26:28.535Z,421.9231
2023-05-13T11:27:29.597Z,421.0769
2023-05-13T11:28:30.701Z,419.8462
2023-05-13T11:29:31.785Z,421.0000
2023-05-13T11:30:32.887Z,421.3846
2023-05-13T11:31:34.050Z,420.0769
2023-05-13T11:32:35.105Z,421.4615
2023-05-13T11:33:36.174Z,419.6923
2023-05-13T11:34:37.269Z,418.0000
2023-05-13T11:35:38.362Z,416.8462
2023-05-13T11:36:39.488Z,417.2308
2023-05-13T11:37:40.571Z,418.7692
2023-05-13T11:38:41.652Z,418.5385
2023-05-13T11:39:42.763Z,419.8462
2023-05-13T11:40:43.867Z,420.0000
2023-05-13T11:41:44.953Z,422.1538
2023-05-13T11:42:46.053Z,419.7692
2023-05-13T11:43:55.676Z,417.8462
2023-05-13T11:44:55.749Z,416.7500
2023-05-13T11:45:56.873Z,414.4167
2023-05-13T11:46:58.954Z,416.6667
2023-05-13T11:47:51.541Z,416.6667
2023-05-13T11:48:52.607Z,417.4615
2023-05-13T11:49:53.708Z,417.3846
2023-05-13T11:50:54.796Z,418.3077
2023-05-13T11:51:55.904Z,418.9231
2023-05-13T11:52:57.005Z,417.1538
2023-05-13T11:53:58.087Z,417.6154
2023-05-13T11:54:59.183Z,416.1538
2023-05-13T11:56:00.262Z,415.0769
2023-05-13T11:57:01.379Z,415.0769